Time;durP1;ratioP1;P1;durP2;ratioP2;P2;SDS_P1;SDS_P2;PMS_P1;PMS_P2;Temp;Humidity;BMP_temperature;BMP_pressure;BME280_temperature;BME280_humidity;BME280_pressure;Samples;Min_cycle;Max_cycle;Signal;HPM_P1;HPM_P2
2021/11/25 00:02:08;;;;;;;0.00;0.00;;;;;;;16.14;97.97;101390.28;4929997;29;20072;-75
2021/11/25 00:04:36;;;;;;;0.00;0.00;;;;;;;16.14;97.89;101395.59;4912503;29;20052;-75
2021/11/25 00:07:04;;;;;;;0.00;0.00;;;;;;;16.13;97.86;101397.38;4910933;29;20381;-75
2021/11/25 00:09:31;;;;;;;0.00;0.00;;;;;;;16.14;97.98;101398.25;4910132;28;20066;-75
2021/11/25 00:11:59;;;;;;;0.00;0.00;;;;;;;16.12;97.95;101394.69;4940963;28;20765;-74
2021/11/25 00:14:27;;;;;;;0.00;0.00;;;;;;;16.09;97.93;101384.91;4909116;29;20409;-74
2021/11/25 00:16:57;;;;;;;0.00;0.00;;;;;;;16.12;98.00;101392.03;4910927;29;20063;-75
2021/11/25 00:19:25;;;;;;;0.00;0.00;;;;;;;16.07;97.81;101396.47;4915902;28;20563;-75
2021/11/25 00:21:52;;;;;;;0.00;0.00;;;;;;;16.08;97.88;101387.59;4933737;28;20047;-74
2021/11/25 00:24:20;;;;;;;0.00;0.00;;;;;;;16.08;97.88;101387.59;4917915;28;20543;-75
2021/11/25 00:26:48;;;;;;;0.00;0.00;;;;;;;16.08;97.86;101387.59;4927429;29;20857;-75
2021/11/25 00:29:16;;;;;;;0.00;0.00;;;;;;;16.09;97.97;101389.34;4895926;29;20507;-74
2021/11/25 00:31:45;;;;;;;0.00;0.00;;;;;;;16.09;98.06;101392.91;4895700;29;20048;-74
2021/11/25 00:34:14;;;;;;;0.00;0.00;;;;;;;16.15;98.10;101392.03;4896363;29;20079;-74
2021/11/25 00:36:42;;;;;;;0.00;0.00;;;;;;;16.16;98.11;101391.16;4898475;29;20575;-74
2021/11/25 00:39:10;;;;;;;0.00;0.00;;;;;;;16.16;98.12;101392.03;4929602;28;20047;-75
2021/11/25 00:41:37;;;;;;;0.00;0.00;;;;;;;16.18;98.23;101395.59;4947885;28;20055;-75
2021/11/25 00:44:05;;;;;;;0.00;0.00;;;;;;;16.21;98.26;101397.41;4929411;29;20130;-74
2021/11/25 00:46:33;;;;;;;0.00;0.00;;;;;;;16.21;98.29;101394.75;4913701;29;20412;-74
2021/11/25 00:49:01;;;;;;;0.00;0.00;;;;;;;16.20;98.40;101395.63;4912168;29;20071;-74
2021/11/25 00:51:30;;;;;;;0.00;0.00;;;;;;;16.20;98.28;101390.28;4915510;29;20111;-74
2021/11/25 00:53:58;;;;;;;0.00;0.00;;;;;;;16.18;98.28;101384.94;4947640;29;20039;-74
2021/11/25 00:56:26;;;;;;;0.00;0.00;;;;;;;16.19;98.29;101392.06;4947597;29;20460;-74
2021/11/25 00:58:54;;;;;;;0.00;0.00;;;;;;;16.20;98.30;101393.84;4925470;29;20051;-74
2021/11/25 01:01:22;;;;;;;0.00;0.00;;;;;;;16.21;98.40;101394.75;4943968;28;20075;-74
2021/11/25 01:03:50;;;;;;;0.08;0.08;;;;;;;16.23;98.40;101395.59;4899662;29;20658;-74
2021/11/25 01:06:18;;;;;;;0.00;0.00;;;;;;;16.23;98.47;101391.16;4915305;29;20131;-74
2021/11/25 01:08:48;;;;;;;0.00;0.00;;;;;;;16.26;98.50;101390.31;4943530;29;20066;-74
2021/11/25 01:11:16;;;;;;;0.00;0.00;;;;;;;16.26;98.72;101392.97;4927713;29;20044;-74
2021/11/25 01:13:44;;;;;;;0.00;0.00;;;;;;;16.26;98.60;101393.84;4935627;29;20037;-74
2021/11/25 01:16:12;;;;;;;0.00;0.00;;;;;;;16.24;98.64;101392.06;4928048;29;20044;-75
2021/11/25 01:18:40;;;;;;;0.00;0.00;;;;;;;16.23;98.63;101388.50;4912359;29;20120;-74
2021/11/25 01:21:09;;;;;;;0.00;0.00;;;;;;;16.21;98.69;101390.25;4912381;29;20036;-74
2021/11/25 01:23:37;;;;;;;0.00;0.00;;;;;;;16.26;98.67;101392.97;4911240;29;20044;-74
2021/11/25 01:26:06;;;;;;;0.00;0.00;;;;;;;16.28;98.80;101393.84;4913512;29;20107;-75
2021/11/25 01:28:34;;;;;;;0.00;0.00;;;;;;;16.29;98.88;101387.63;4927523;28;20697;-75
2021/11/25 01:31:02;;;;;;;0.00;0.00;;;;;;;16.30;98.94;101389.41;4902118;29;20131;-74
2021/11/25 01:33:31;;;;;;;0.00;0.00;;;;;;;16.28;98.96;101386.72;4935236;29;20044;-75
2021/11/25 01:36:00;;;;;;;0.00;0.00;;;;;;;16.27;99.03;101384.97;4894076;29;20323;-74
2021/11/25 01:38:29;;;;;;;0.00;0.00;;;;;;;16.25;98.93;101377.84;4862666;29;20096;-74
2021/11/25 01:40:57;;;;;;;0.00;0.00;;;;;;;16.23;98.89;101383.19;4913444;29;20040;-74
2021/11/25 01:43:27;;;;;;;0.00;0.00;;;;;;;16.24;98.93;101378.75;4921276;29;20439;-74
2021/11/25 01:45:57;;;;;;;0.00;0.00;;;;;;;16.20;98.90;101368.97;4932045;29;20059;-74
2021/11/25 01:48:25;;;;;;;0.00;0.00;;;;;;;16.19;98.83;101376.06;4931635;29;20130;-74
2021/11/25 01:50:54;;;;;;;0.00;0.00;;;;;;;16.17;98.88;101372.50;4900021;29;20116;-74
2021/11/25 01:53:22;;;;;;;0.00;0.00;;;;;;;16.17;98.88;101374.28;4909351;29;20090;-74
2021/11/25 01:55:50;;;;;;;0.00;0.00;;;;;;;16.16;98.87;101369.84;4945596;29;20103;-74
2021/11/25 01:58:18;;;;;;;0.00;0.00;;;;;;;16.18;98.86;101373.41;4931154;29;20043;-74
2021/11/25 02:00:52;;;;;;;0.00;0.00;;;;;;;16.20;98.97;101368.97;4917278;29;20044;-74
2021/11/25 02:03:20;;;;;;;;;;;;;;;16.18;99.01;101370.72;4897038;29;20051;-73
2021/11/25 02:05:48;;;;;;;0.00;0.00;;;;;;;16.12;99.02;101355.63;4949664;28;20422;-74
2021/11/25 02:08:16;;;;;;;0.00;0.00;;;;;;;16.13;99.03;101364.50;4946556;29;20399;-74
2021/11/25 02:10:48;;;;;;;0.00;0.00;;;;;;;16.16;99.02;101369.84;4938218;28;20499;-74
2021/11/25 02:13:16;;;;;;;0.00;0.00;;;;;;;16.17;98.99;101375.16;4927354;28;20040;-74
2021/11/25 02:15:43;;;;;;;0.00;0.00;;;;;;;16.18;98.93;101371.63;4930244;29;20415;-74
2021/11/25 02:18:16;;;;;;;0.70;0.47;;;;;;;16.20;99.15;101372.53;4931340;29;20156;-74
2021/11/25 02:20:50;;;;;;;0.77;0.77;;;;;;;16.22;99.12;101369.84;4931228;29;20044;-74
2021/11/25 02:23:19;;;;;;;0.00;0.00;;;;;;;16.19;99.23;101372.53;4899346;29;20051;-74
2021/11/25 02:25:48;;;;;;;0.00;0.00;;;;;;;16.18;99.31;101368.06;4923959;29;20044;-74
2021/11/25 02:28:19;;;;;;;0.00;0.00;;;;;;;16.19;99.25;101373.41;4922679;29;20100;-73
2021/11/25 02:30:47;;;;;;;0.00;0.00;;;;;;;16.19;99.22;101372.53;4884140;29;20055;-74
2021/11/25 02:33:15;;;;;;;0.00;0.00;;;;;;;16.18;99.31;101368.06;4910756;29;20452;-71
2021/11/25 02:35:43;;;;;;;0.00;0.00;;;;;;;16.15;99.24;101360.94;4943000;29;20047;-71
2021/11/25 02:38:14;;;;;;;0.22;0.22;;;;;;;16.17;99.25;101363.63;4911994;29;20047;-73
2021/11/25 02:40:45;;;;;;;0.00;0.00;;;;;;;16.17;99.29;101368.94;4893597;29;20446;-74
2021/11/25 02:43:16;;;;;;;0.13;0.13;;;;;;;16.16;99.35;101369.84;4921680;29;20043;-74
2021/11/25 02:45:48;;;;;;;0.00;0.00;;;;;;;16.15;99.25;101360.06;4913724;29;20061;-73
2021/11/25 02:48:17;;;;;;;0.00;0.00;;;;;;;16.11;99.25;101372.50;4930742;29;20081;-74
2021/11/25 02:50:46;;;;;;;0.00;0.00;;;;;;;16.13;99.31;101359.19;4912512;29;20048;-73
2021/11/25 02:53:19;;;;;;;0.00;0.00;;;;;;;16.15;99.47;101362.72;4926133;29;20054;-73
2021/11/25 02:55:47;;;;;;;0.00;0.00;;;;;;;16.14;99.40;101369.84;4929924;29;20052;-73
2021/11/25 02:58:16;;;;;;;0.00;0.00;;;;;;;16.16;99.53;101373.38;4910896;29;20048;-73
2021/11/25 03:00:46;;;;;;;0.00;0.00;;;;;;;16.18;99.52;101368.97;4909032;29;20044;-74
2021/11/25 03:03:17;;;;;;;0.00;0.00;;;;;;;16.19;99.64;101367.19;4919911;29;20043;-71
2021/11/25 03:05:47;;;;;;;0.00;0.00;;;;;;;16.17;99.64;101376.94;4945396;29;20134;-73
2021/11/25 03:08:18;;;;;;;0.00;0.00;;;;;;;16.15;99.52;101368.94;4925986;29;20411;-73
2021/11/25 03:10:48;;;;;;;0.00;0.00;;;;;;;16.15;99.70;101370.72;4936763;29;20055;-73
2021/11/25 03:13:18;;;;;;;0.00;0.00;;;;;;;16.15;99.61;101371.59;4910488;29;20385;-73
2021/11/25 03:15:46;;;;;;;0.00;0.00;;;;;;;16.13;99.62;101373.41;4906033;29;20151;-73
2021/11/25 03:18:15;;;;;;;0.03;0.03;;;;;;;16.15;99.68;101368.06;4926657;29;20091;-73
2021/11/25 03:20:44;;;;;;;0.10;0.10;;;;;;;16.13;99.66;101365.41;4935916;29;20075;-73
2021/11/25 03:23:13;;;;;;;0.00;0.00;;;;;;;16.11;99.66;101367.16;4891573;29;20043;-73
2021/11/25 03:25:44;;;;;;;0.00;0.00;;;;;;;16.11;99.69;101366.28;4894707;29;20044;-72
2021/11/25 03:28:12;;;;;;;0.00;0.00;;;;;;;16.07;99.76;101369.81;4910556;29;20047;-73
2021/11/25 03:30:40;;;;;;;0.00;0.00;;;;;;;16.12;99.88;101384.03;4909491;29;20048;-73
2021/11/25 03:33:10;;;;;;;0.00;0.00;;;;;;;16.16;99.96;101372.50;4910042;29;20100;-72
2021/11/25 03:35:38;;;;;;;0.00;0.00;;;;;;;16.13;99.94;101384.06;4892397;29;20048;-73
2021/11/25 03:38:08;;;;;;;0.00;0.00;;;;;;;16.15;100.00;101381.38;4929345;29;20562;-73
2021/11/25 03:40:36;;;;;;;0.00;0.00;;;;;;;16.15;100.00;101382.25;4927395;29;20055;-73
2021/11/25 03:43:05;;;;;;;0.00;0.00;;;;;;;16.19;100.00;101383.19;4896370;29;20547;-72
2021/11/25 03:45:33;;;;;;;0.00;0.00;;;;;;;16.20;100.00;101395.63;4911502;29;20046;-73
2021/11/25 03:48:01;;;;;;;0.00;0.00;;;;;;;16.18;100.00;101389.38;4909420;29;20496;-73
2021/11/25 03:50:29;;;;;;;0.38;0.38;;;;;;;16.17;100.00;101393.81;4910517;29;20123;-73
2021/11/25 03:52:57;;;;;;;0.00;0.00;;;;;;;16.19;100.00;101396.50;4910157;29;20044;-73
2021/11/25 03:55:26;;;;;;;0.00;0.00;;;;;;;16.19;100.00;101397.38;4913993;29;20040;-72
2021/11/25 03:57:53;;;;;;;0.00;0.00;;;;;;;16.22;100.00;101396.50;4913507;29;20044;-72
2021/11/25 04:00:24;;;;;;;0.00;0.00;;;;;;;16.25;100.00;101401.84;4957612;28;20127;-72
2021/11/25 04:02:53;;;;;;;0.10;0.10;;;;;;;16.22;100.00;101410.69;4928108;29;20044;-72
2021/11/25 04:05:21;;;;;;;0.00;0.00;;;;;;;16.20;100.00;101404.50;4945434;28;20046;-72
2021/11/25 04:07:49;;;;;;;0.00;0.00;;;;;;;16.18;100.00;101400.94;4943397;29;20083;-73
2021/11/25 04:10:17;;;;;;;0.00;0.00;;;;;;;16.22;100.00;101401.81;4932572;29;20051;-72
2021/11/25 04:12:45;;;;;;;0.00;0.00;;;;;;;16.24;100.00;101402.72;4916475;29;20044;-72
2021/11/25 04:15:16;;;;;;;0.00;0.00;;;;;;;16.22;100.00;101404.47;4946411;28;20094;-72
2021/11/25 04:17:45;;;;;;;0.00;0.00;;;;;;;16.14;100.00;101411.59;4922869;29;20044;-72
2021/11/25 04:20:14;;;;;;;1.80;0.75;;;;;;;16.12;100.00;101406.25;4910379;28;20055;-72
2021/11/25 04:22:43;;;;;;;6.60;2.85;;;;;;;16.08;100.00;101404.44;4895216;29;20041;-72
2021/11/25 04:25:11;;;;;;;6.07;2.05;;;;;;;16.07;100.00;101407.13;4893848;29;20041;-72
2021/11/25 04:27:39;;;;;;;3.80;1.80;;;;;;;16.07;100.00;101412.44;4909593;29;20053;-72
2021/11/25 04:30:11;;;;;;;4.97;2.28;;;;;;;16.09;100.00;101422.19;4926507;29;20124;-72
2021/11/25 04:35:29;;;;;;;10.25;2.83;;;;;;;16.11;100.00;101422.22;4913807;29;20079;-72
2021/11/25 04:37:58;;;;;;;8.50;2.53;;;;;;;16.09;100.00;101421.31;4912902;29;20044;-71
2021/11/25 04:40:25;;;;;;;10.43;3.38;;;;;;;16.07;100.00;101424.00;4915261;29;20040;-72
2021/11/25 04:42:53;;;;;;;6.30;3.10;;;;;;;16.08;100.00;101425.75;4917565;28;20483;-72
2021/11/25 04:45:21;;;;;;;11.02;4.57;;;;;;;16.10;100.00;101426.66;4910705;29;20099;-72
2021/11/25 04:47:48;;;;;;;6.88;3.92;;;;;;;16.09;100.00;101430.19;4914509;29;20512;-68
2021/11/25 04:50:20;;;;;;;9.63;3.15;;;;;;;16.10;100.00;101431.09;4913092;29;21357;-71
2021/11/25 04:52:49;;;;;;;9.32;3.05;;;;;;;16.10;100.00;101439.97;4912661;29;20062;-71
2021/11/25 04:55:18;;;;;;;7.85;2.58;;;;;;;16.08;100.00;101431.06;4913948;29;20445;-72
2021/11/25 04:57:46;;;;;;;8.85;2.70;;;;;;;16.07;100.00;101428.44;4910181;29;20051;-71
2021/11/25 05:00:16;;;;;;;6.80;2.65;;;;;;;16.07;100.00;101431.09;4901446;28;20500;-71
2021/11/25 05:02:44;;;;;;;5.95;2.63;;;;;;;16.05;100.00;101423.09;4932021;28;20051;-71
2021/11/25 05:05:12;;;;;;;6.93;2.60;;;;;;;16.08;100.00;101427.56;4924971;28;20044;-70
2021/11/25 05:07:40;;;;;;;7.60;2.85;;;;;;;16.07;100.00;101420.44;4944271;28;20048;-70
2021/11/25 05:10:11;;;;;;;7.97;3.30;;;;;;;16.05;100.00;101419.53;4907061;29;20299;-71
2021/11/25 05:12:39;;;;;;;7.07;2.80;;;;;;;16.04;100.00;101423.06;4894947;29;20613;-70
2021/11/25 05:15:08;;;;;;;6.53;2.60;;;;;;;16.03;100.00;101431.94;4893677;29;20096;-71
2021/11/25 05:17:38;;;;;;;7.60;2.50;;;;;;;16.02;100.00;101436.38;4897456;29;20497;-71
2021/11/25 05:20:10;;;;;;;8.13;3.80;;;;;;;16.05;100.00;101432.84;4893276;29;20512;-70
2021/11/25 05:22:38;;;;;;;9.63;3.28;;;;;;;16.05;100.00;101432.84;4894313;29;20056;-70
2021/11/25 05:25:08;;;;;;;7.32;2.08;;;;;;;16.06;100.00;101421.31;4924298;29;20045;-70
2021/11/25 05:27:37;;;;;;;9.43;2.70;;;;;;;16.03;100.00;101426.63;4892933;29;20068;-70
2021/11/25 05:30:07;;;;;;;9.77;2.85;;;;;;;16.04;100.00;101431.06;4924483;29;20060;-70
2021/11/25 05:32:36;;;;;;;6.68;2.70;;;;;;;16.06;100.00;101439.97;4894243;29;20108;-70
2021/11/25 05:35:04;;;;;;;7.68;2.50;;;;;;;16.08;100.00;101446.19;4891710;29;20051;-70
2021/11/25 05:37:32;;;;;;;10.50;2.70;;;;;;;16.05;100.00;101446.16;4897773;29;20449;-71
2021/11/25 05:40:00;;;;;;;6.32;2.60;;;;;;;16.03;100.00;101453.25;4906726;29;20048;-71
2021/11/25 05:42:27;;;;;;;4.93;2.20;;;;;;;16.03;100.00;101453.25;4894237;29;20052;-70
2021/11/25 05:44:57;;;;;;;6.70;1.92;;;;;;;16.02;100.00;101448.81;4902473;29;20400;-70
2021/11/25 05:47:25;;;;;;;6.00;2.17;;;;;;;16.00;100.00;101446.16;4926303;28;20098;-70
2021/11/25 05:49:53;;;;;;;4.55;2.30;;;;;;;16.01;100.00;101450.59;4930919;29;20048;-70
2021/11/25 05:52:20;;;;;;;7.28;2.72;;;;;;;15.99;100.00;101456.78;4931453;29;20044;-70
2021/11/25 05:54:49;;;;;;;8.57;2.45;;;;;;;15.98;99.98;101461.22;4917792;29;20396;-70
2021/11/25 05:57:17;;;;;;;10.43;2.80;;;;;;;15.95;100.00;101456.75;4912749;29;20488;-70
2021/11/25 05:59:44;;;;;;;4.30;1.80;;;;;;;15.98;100.00;101463.91;4912813;29;20190;-70
2021/11/25 06:02:15;;;;;;;13.23;2.67;;;;;;;16.02;100.00;101462.13;4943121;29;20044;-70
2021/11/25 06:04:43;;;;;;;7.60;2.20;;;;;;;16.07;100.00;101466.59;4927229;29;20048;-70
2021/11/25 06:07:10;;;;;;;8.68;2.63;;;;;;;16.12;100.00;101470.19;4920662;29;20041;-70
2021/11/25 06:09:39;;;;;;;5.78;2.90;;;;;;;16.18;100.00;101469.31;4936890;28;20047;-70
2021/11/25 06:12:07;;;;;;;7.13;2.30;;;;;;;16.19;100.00;101476.41;4931316;29;20058;-70
2021/11/25 06:14:36;;;;;;;7.25;3.13;;;;;;;16.19;100.00;101481.75;4912883;29;20047;-70
2021/11/25 06:17:04;;;;;;;6.80;2.70;;;;;;;16.18;100.00;101479.97;4910945;29;20040;-70
2021/11/25 06:19:34;;;;;;;10.23;2.80;;;;;;;16.23;100.00;101480.88;4915649;29;20052;-70
2021/11/25 06:22:02;;;;;;;8.45;2.22;;;;;;;16.19;100.00;101476.41;4912080;29;20119;-70
2021/11/25 06:24:30;;;;;;;6.28;2.72;;;;;;;16.23;100.00;101480.88;4912204;29;20044;-70
2021/11/25 06:26:58;;;;;;;6.35;2.08;;;;;;;16.25;100.00;101482.66;4923098;29;20040;-70
2021/11/25 06:29:25;;;;;;;5.07;2.25;;;;;;;16.29;100.00;101486.22;4909193;29;20040;-70
2021/11/25 06:31:53;;;;;;;5.00;2.00;;;;;;;16.29;100.00;101479.13;4920562;29;20063;-69
2021/11/25 06:34:21;;;;;;;11.77;2.55;;;;;;;16.30;100.00;101482.66;4903310;29;20412;-69
2021/11/25 06:36:50;;;;;;;5.20;2.75;;;;;;;16.35;100.00;101481.78;4892237;29;20048;-69
2021/11/25 06:39:18;;;;;;;9.75;2.45;;;;;;;16.36;100.00;101490.69;4896213;29;20039;-69
2021/11/25 06:41:46;;;;;;;6.30;2.67;;;;;;;16.41;100.00;101488.91;4903089;29;20062;-69
2021/11/25 06:44:13;;;;;;;5.72;2.50;;;;;;;16.46;100.00;101496.94;4912588;28;20072;-69
2021/11/25 06:46:41;;;;;;;7.35;2.70;;;;;;;16.48;100.00;101498.72;4920078;29;20044;-70
2021/11/25 06:49:08;;;;;;;7.60;2.35;;;;;;;16.51;100.00;101498.75;4923029;29;20051;-69
2021/11/25 06:51:36;;;;;;;5.78;2.20;;;;;;;16.52;100.00;101504.97;4942367;29;20052;-70
2021/11/25 06:54:05;;;;;;;6.68;2.22;;;;;;;16.55;100.00;101505.84;4911924;29;20044;-70
2021/11/25 06:56:33;;;;;;;6.30;2.28;;;;;;;16.54;100.00;101503.22;4922920;28;20099;-70
2021/11/25 06:59:01;;;;;;;5.18;1.67;;;;;;;16.57;100.00;101521.84;4879695;29;20044;-70
2021/11/25 07:01:29;;;;;;;6.32;2.20;;;;;;;16.56;100.00;101512.97;4921377;29;20047;-69
2021/11/25 07:03:57;;;;;;;3.80;1.88;;;;;;;16.60;100.00;101513.91;4891978;29;20044;-69
2021/11/25 07:06:25;;;;;;;7.13;2.75;;;;;;;16.71;100.00;101520.16;4892997;29;20397;-69
2021/11/25 07:08:53;;;;;;;4.28;1.70;;;;;;;16.91;100.00;101514.88;4908417;29;20560;-69
2021/11/25 07:11:22;;;;;;;6.18;2.03;;;;;;;16.98;100.00;101501.56;4901931;29;20033;-69
2021/11/25 07:13:49;;;;;;;7.43;2.10;;;;;;;17.10;100.00;101522.00;4892173;29;20052;-69
2021/11/25 07:16:17;;;;;;;4.38;2.20;;;;;;;17.21;100.00;101520.22;4892586;29;20071;-69
2021/11/25 07:18:45;;;;;;;8.30;1.73;;;;;;;17.40;100.00;101515.78;4910367;29;20060;-70
2021/11/25 07:21:13;;;;;;;4.50;2.22;;;;;;;17.57;100.00;101511.34;4909883;29;20087;-70
2021/11/25 07:23:40;;;;;;;7.72;1.83;;;;;;;17.66;100.00;101513.13;4891210;29;20501;-70
2021/11/25 07:26:08;;;;;;;2.85;1.70;;;;;;;17.75;100.00;101499.78;4901177;29;20610;-69
2021/11/25 07:28:38;;;;;;;6.10;1.83;;;;;;;17.80;100.00;101511.31;4915379;29;20055;-70
2021/11/25 07:31:05;;;;;;;4.45;1.52;;;;;;;17.79;100.00;101517.56;4911438;29;20036;-69
2021/11/25 07:33:33;;;;;;;4.70;1.90;;;;;;;17.75;100.00;101515.78;4909964;29;20496;-69
2021/11/25 07:36:01;;;;;;;4.78;1.98;;;;;;;17.61;100.00;101509.56;4911757;29;20064;-70
2021/11/25 07:38:30;;;;;;;6.53;2.15;;;;;;;17.52;100.00;101519.34;4921285;29;20543;-69
2021/11/25 07:40:59;;;;;;;8.85;3.10;;;;;;;17.52;100.00;101519.34;4897591;29;20044;-69
2021/11/25 07:43:28;;;;;;;8.52;3.67;;;;;;;17.53;100.00;101536.25;4918499;29;20044;-69
2021/11/25 07:45:58;;;;;;;9.93;2.45;;;;;;;17.72;100.00;101531.84;4921624;29;20044;-69
2021/11/25 07:48:25;;;;;;;8.48;1.83;;;;;;;17.96;100.00;101526.44;4910649;29;20385;-69
2021/11/25 07:50:53;;;;;;;8.43;3.13;;;;;;;18.11;100.00;101526.41;4913816;29;20147;-69
2021/11/25 07:53:21;;;;;;;4.28;1.50;;;;;;;18.21;100.00;101528.16;4910033;29;20140;-69
2021/11/25 07:55:48;;;;;;;6.70;2.60;;;;;;;18.11;100.00;101530.88;4924016;29;20076;-69
2021/11/25 07:58:16;;;;;;;4.10;2.00;;;;;;;18.00;100.00;101538.88;4909205;29;20040;-69
2021/11/25 08:00:45;;;;;;;7.20;2.08;;;;;;;17.90;100.00;101539.81;4938761;28;20123;-69
2021/11/25 08:03:14;;;;;;;4.63;2.28;;;;;;;17.81;100.00;101527.34;4906251;29;20048;-69
2021/11/25 08:05:42;;;;;;;5.35;1.80;;;;;;;17.74;100.00;101540.72;4906849;29;20123;-69
2021/11/25 08:08:09;;;;;;;8.85;2.40;;;;;;;17.64;100.00;101541.63;4908926;29;20047;-69
2021/11/25 08:10:38;;;;;;;11.63;3.45;;;;;;;17.62;100.00;101540.72;4907486;29;20053;-69
2021/11/25 08:13:05;;;;;;;6.72;2.00;;;;;;;17.72;100.00;101538.03;4909737;29;20107;-69
2021/11/25 08:15:33;;;;;;;6.22;2.25;;;;;;;17.80;100.00;101538.03;4931544;29;20040;-69
2021/11/25 08:18:01;;;;;;;7.03;2.35;;;;;;;17.80;100.00;101543.38;4911729;29;20036;-69
2021/11/25 08:20:31;;;;;;;4.75;2.13;;;;;;;17.73;100.00;101538.94;4911352;29;20148;-69
2021/11/25 08:23:00;;;;;;;5.32;2.30;;;;;;;17.68;100.00;101533.59;4910691;29;20091;-69
2021/11/25 08:25:28;;;;;;;4.28;1.95;;;;;;;17.63;100.00;101521.16;4919321;29;20044;-68
2021/11/25 08:27:57;;;;;;;6.78;2.28;;;;;;;17.60;100.00;101531.78;4908575;29;20052;-69
2021/11/25 08:30:25;;;;;;;5.65;2.22;;;;;;;17.50;100.00;101520.25;4909670;29;20045;-68
2021/11/25 08:32:54;;;;;;;4.10;2.17;;;;;;;17.47;100.00;101521.13;4909513;29;20045;-68
2021/11/25 08:35:22;;;;;;;6.88;2.25;;;;;;;17.41;100.00;101525.56;4924357;29;20665;-69
2021/11/25 08:37:53;;;;;;;6.22;2.80;;;;;;;17.33;100.00;101530.00;4920716;29;20063;-68
2021/11/25 08:40:20;;;;;;;4.75;1.80;;;;;;;17.36;100.00;101528.25;4918763;29;20492;-68
2021/11/25 08:42:50;;;;;;;4.55;2.22;;;;;;;17.42;100.00;101528.25;4920097;29;20040;-69
2021/11/25 08:45:19;;;;;;;5.78;2.38;;;;;;;17.41;100.00;101520.22;4948456;28;20039;-68
2021/11/25 08:47:47;;;;;;;7.97;2.92;;;;;;;17.41;100.00;101523.78;4914143;29;20701;-69
2021/11/25 08:50:15;;;;;;;6.75;3.15;;;;;;;17.53;100.00;101517.56;4928668;29;20511;-68
2021/11/25 08:52:43;;;;;;;13.55;3.55;;;;;;;17.56;100.00;101519.34;4936840;28;20044;-69
2021/11/25 08:55:13;;;;;;;5.72;2.60;;;;;;;17.50;100.00;101526.47;4911930;29;20488;-68
2021/11/25 08:57:41;;;;;;;4.68;2.40;;;;;;;17.46;100.00;101523.78;4912858;29;20059;-68
2021/11/25 09:00:11;;;;;;;4.32;2.03;;;;;;;17.52;100.00;101519.34;4914879;29;20044;-69
2021/11/25 09:02:39;;;;;;;6.13;2.17;;;;;;;17.49;100.00;101518.47;4912781;29;20104;-68
2021/11/25 09:05:10;;;;;;;5.25;2.05;;;;;;;17.47;100.00;101528.25;4903517;29;20100;-68
2021/11/25 09:07:39;;;;;;;8.80;2.78;;;;;;;17.43;100.00;101527.38;4919445;29;20323;-69
2021/11/25 09:10:07;;;;;;;6.65;2.78;;;;;;;17.56;100.00;101535.38;4899262;29;20060;-69
2021/11/25 09:12:38;;;;;;;3.08;2.10;;;;;;;17.71;100.00;101530.06;4892081;29;20530;-69
2021/11/25 09:15:07;;;;;;;3.47;1.88;;;;;;;17.79;100.00;101522.91;4932694;29;20131;-69
2021/11/25 09:17:35;;;;;;;3.67;2.10;;;;;;;18.04;100.00;101516.63;4913787;29;20044;-69
2021/11/25 09:20:03;;;;;;;5.00;2.13;;;;;;;18.18;100.00;101501.41;4924103;29;20500;-69
2021/11/25 09:22:31;;;;;;;9.13;2.00;;;;;;;18.31;100.00;101510.31;4928075;29;20048;-70
2021/11/25 09:24:59;;;;;;;9.80;4.22;;;;;;;18.53;100.00;101505.72;4922720;29;20055;-69
2021/11/25 09:27:27;;;;;;;16.80;5.32;;;;;;;18.81;100.00;101514.53;4902946;29;20072;-69
2021/11/25 09:29:56;;;;;;;29.80;15.50;;;;;;;19.06;100.00;101516.13;4896162;29;20629;-69
2021/11/25 09:32:26;;;;;;;13.00;5.78;;;;;;;19.16;100.00;101512.50;4911161;29;20098;-69
2021/11/25 09:34:54;;;;;;;3.92;2.50;;;;;;;19.33;99.85;101512.34;4925859;29;20492;-69
2021/11/25 09:37:22;;;;;;;4.95;2.10;;;;;;;19.45;99.44;101499.75;4898839;29;20048;-69
2021/11/25 09:39:50;;;;;;;6.07;2.10;;;;;;;19.60;99.30;101501.44;4919060;29;20412;-69
2021/11/25 09:42:17;;;;;;;5.45;2.15;;;;;;;19.70;98.79;101492.38;4894538;29;20119;-69
2021/11/25 09:44:46;;;;;;;4.00;2.00;;;;;;;19.77;98.72;101493.22;4908748;29;20090;-69
2021/11/25 09:47:17;;;;;;;4.00;1.95;;;;;;;19.79;98.44;101497.66;4903889;29;20609;-69
2021/11/25 09:49:45;;;;;;;5.40;2.10;;;;;;;19.75;98.04;101495.94;4933029;28;20059;-69
2021/11/25 09:52:13;;;;;;;5.22;2.15;;;;;;;19.68;97.50;101496.91;4911019;29;20044;-69
2021/11/25 09:54:41;;;;;;;4.85;2.42;;;;;;;19.74;97.27;101485.22;4908932;29;20595;-69
2021/11/25 09:57:08;;;;;;;4.18;2.17;;;;;;;19.82;96.73;101494.06;4909706;29;20122;-69
2021/11/25 09:59:36;;;;;;;8.00;2.63;;;;;;;19.96;96.47;101496.56;4922063;29;20048;-69
2021/11/25 10:02:06;;;;;;;6.82;2.33;;;;;;;19.69;95.16;101489.75;4910417;29;20132;-69
2021/11/25 10:04:35;;;;;;;10.18;1.98;;;;;;;19.62;94.06;101493.41;4908368;29;20138;-69
2021/11/25 10:07:03;;;;;;;3.53;2.00;;;;;;;19.76;93.93;101494.13;4909953;29;20040;-69
2021/11/25 10:09:36;;;;;;;5.72;2.03;;;;;;;19.94;93.39;101485.91;4909044;29;20048;-69
2021/11/25 10:12:31;;;;;;;5.13;2.10;;;;;;;19.94;92.20;101491.25;4926247;29;20416;-69
2021/11/25 10:15:01;;;;;;;6.32;2.35;;;;;;;19.76;91.62;101494.13;4895474;29;20084;-69
2021/11/25 10:17:47;;;;;;;7.78;2.83;;;;;;;19.77;90.84;101491.44;4907493;29;20149;-69
2021/11/25 10:20:19;;;;;;;5.70;2.03;;;;;;;19.94;90.96;101485.00;4900508;29;20048;-69
2021/11/25 10:23:15;;;;;;;6.68;2.05;;;;;;;20.15;90.13;101491.00;4882376;29;20176;-69
2021/11/25 10:25:49;;;;;;;7.00;2.00;;;;;;;20.14;89.56;101480.31;4897897;29;20485;-69
2021/11/25 10:28:27;;;;;;;5.07;1.95;;;;;;;20.32;89.09;101477.38;4893493;29;20991;-69
2021/11/25 10:30:57;;;;;;;5.20;2.10;;;;;;;20.42;88.28;101473.69;4894157;29;20047;-69
2021/11/25 10:33:28;;;;;;;8.23;2.20;;;;;;;20.41;87.10;101480.00;4893606;29;20051;-69
2021/11/25 10:36:26;;;;;;;6.78;2.85;;;;;;;20.25;85.99;101489.09;4919918;29;20037;-69
2021/11/25 10:39:00;;;;;;;3.50;2.03;;;;;;;20.17;86.12;101482.94;4891247;29;20048;-69
2021/11/25 10:41:30;;;;;;;5.68;2.03;;;;;;;20.19;85.33;101481.13;4894687;29;20083;-69
2021/11/25 10:44:16;;;;;;;4.38;2.40;;;;;;;20.28;84.42;101481.03;4893826;29;20056;-69
2021/11/25 10:46:48;;;;;;;4.43;2.10;;;;;;;20.28;83.67;101473.84;4883709;29;20036;-69
2021/11/25 10:49:16;;;;;;;7.50;2.15;;;;;;;20.40;83.25;101475.53;4897651;29;20131;-69
2021/11/25 10:51:46;;;;;;;4.03;1.90;;;;;;;20.59;82.87;101462.75;4891404;29;20103;-69
2021/11/25 10:54:16;;;;;;;5.15;2.00;;;;;;;20.71;81.50;101469.72;4901825;29;20619;-69
2021/11/25 10:56:47;;;;;;;4.40;2.10;;;;;;;20.81;80.89;101466.88;4889461;29;20051;-69
2021/11/25 10:59:17;;;;;;;4.55;2.20;;;;;;;20.80;78.76;101469.59;4908996;29;20133;-70
2021/11/25 11:01:47;;;;;;;5.60;2.33;;;;;;;20.57;77.65;101468.13;4895363;29;20048;-69
2021/11/25 11:04:17;;;;;;;5.97;2.30;;;;;;;20.49;77.26;101464.66;4894276;29;20107;-70
2021/11/25 11:06:47;;;;;;;5.40;2.53;;;;;;;20.56;76.15;101458.28;4904237;29;20043;-69
2021/11/25 11:09:31;;;;;;;4.70;2.03;;;;;;;20.40;73.94;101461.22;4899743;29;20052;-69
2021/11/25 11:12:19;;;;;;;6.65;2.50;;;;;;;20.09;73.96;101455.31;4894703;29;20056;-69
2021/11/25 11:14:53;;;;;;;6.00;2.50;;;;;;;20.02;74.10;101454.50;4896828;29;20573;-69
2021/11/25 11:17:30;;;;;;;3.72;2.33;;;;;;;19.99;73.61;101445.63;4890324;29;20048;-69
2021/11/25 11:20:10;;;;;;;7.68;2.88;;;;;;;20.03;72.55;101444.69;4901852;29;20048;-69
2021/11/25 11:22:41;;;;;;;5.13;2.35;;;;;;;20.15;72.14;101447.22;4895077;29;20456;-69
2021/11/25 11:25:10;;;;;;;5.88;2.30;;;;;;;20.26;71.40;101446.19;4899575;29;20048;-69
2021/11/25 11:27:38;;;;;;;7.18;2.47;;;;;;;20.29;70.09;101431.81;4901189;29;20056;-69
2021/11/25 11:30:06;;;;;;;8.50;2.58;;;;;;;20.40;69.46;101429.03;4908367;29;20051;-69
2021/11/25 11:32:35;;;;;;;4.72;2.28;;;;;;;20.42;68.56;101433.47;4909549;29;20175;-69
2021/11/25 11:35:04;;;;;;;7.05;2.55;;;;;;;20.37;67.52;101429.97;4917444;29;20056;-70